sensor_id;sensor_type;location;lat;lon;timestamp;P1;durP1;ratioP1;P2;durP2;ratioP2
3633;SDS011;1833;42.718;23.270;2023-04-25T00:00:29;35.57;;;32.60;;
3633;SDS011;1833;42.718;23.270;2023-04-25T00:02:56;34.93;;;31.93;;
3633;SDS011;1833;42.718;23.270;2023-04-25T00:05:25;34.43;;;31.53;;
3633;SDS011;1833;42.718;23.270;2023-04-25T00:07:52;34.20;;;31.20;;
3633;SDS011;1833;42.718;23.270;2023-04-25T00:10:19;35.90;;;32.70;;
3633;SDS011;1833;42.718;23.270;2023-04-25T00:12:46;35.93;;;32.53;;
3633;SDS011;1833;42.718;23.270;2023-04-25T00:15:15;36.63;;;32.70;;
3633;SDS011;1833;42.718;23.270;2023-04-25T00:17:43;35.87;;;32.40;;
3633;SDS011;1833;42.718;23.270;2023-04-25T00:20:11;36.07;;;31.90;;
3633;SDS011;1833;42.718;23.270;2023-04-25T00:22:38;36.13;;;32.93;;
3633;SDS011;1833;42.718;23.270;2023-04-25T00:25:06;37.90;;;33.97;;
3633;SDS011;1833;42.718;23.270;2023-04-25T00:27:33;36.63;;;33.03;;
3633;SDS011;1833;42.718;23.270;2023-04-25T00:30:00;37.03;;;33.33;;
3633;SDS011;1833;42.718;23.270;2023-04-25T00:32:29;36.03;;;32.63;;
3633;SDS011;1833;42.718;23.270;2023-04-25T00:34:56;36.70;;;33.20;;
3633;SDS011;1833;42.718;23.270;2023-04-25T00:37:23;36.20;;;32.40;;
3633;SDS011;1833;42.718;23.270;2023-04-25T00:39:51;34.83;;;31.77;;
3633;SDS011;1833;42.718;23.270;2023-04-25T00:42:20;35.77;;;32.00;;
3633;SDS011;1833;42.718;23.270;2023-04-25T00:44:48;34.67;;;31.60;;
3633;SDS011;1833;42.718;23.270;2023-04-25T00:47:15;34.10;;;30.93;;
3633;SDS011;1833;42.718;23.270;2023-04-25T00:49:44;34.87;;;31.57;;
3633;SDS011;1833;42.718;23.270;2023-04-25T00:52:11;35.40;;;32.30;;
3633;SDS011;1833;42.718;23.270;2023-04-25T00:54:39;34.63;;;31.63;;
3633;SDS011;1833;42.718;23.270;2023-04-25T00:57:06;34.37;;;31.27;;
3633;SDS011;1833;42.718;23.270;2023-04-25T00:59:33;35.13;;;31.87;;
3633;SDS011;1833;42.718;23.270;2023-04-25T01:02:01;35.03;;;31.70;;
3633;SDS011;1833;42.718;23.270;2023-04-25T01:04:28;33.87;;;31.00;;
3633;SDS011;1833;42.718;23.270;2023-04-25T01:06:57;33.00;;;30.30;;
3633;SDS011;1833;42.718;23.270;2023-04-25T01:09:24;35.40;;;32.37;;
3633;SDS011;1833;42.718;23.270;2023-04-25T01:11:52;34.30;;;31.23;;
3633;SDS011;1833;42.718;23.270;2023-04-25T01:14:19;35.60;;;32.50;;
3633;SDS011;1833;42.718;23.270;2023-04-25T01:16:47;34.10;;;31.20;;
3633;SDS011;1833;42.718;23.270;2023-04-25T01:19:16;34.93;;;32.00;;
3633;SDS011;1833;42.718;23.270;2023-04-25T01:21:45;35.83;;;32.60;;
3633;SDS011;1833;42.718;23.270;2023-04-25T01:24:13;36.13;;;32.87;;
3633;SDS011;1833;42.718;23.270;2023-04-25T01:26:40;34.30;;;31.30;;
3633;SDS011;1833;42.718;23.270;2023-04-25T01:29:09;35.13;;;31.93;;
3633;SDS011;1833;42.718;23.270;2023-04-25T01:31:37;37.10;;;32.07;;
3633;SDS011;1833;42.718;23.270;2023-04-25T01:34:04;34.60;;;31.80;;
3633;SDS011;1833;42.718;23.270;2023-04-25T01:36:32;35.00;;;31.73;;
3633;SDS011;1833;42.718;23.270;2023-04-25T01:39:00;35.70;;;32.67;;
3633;SDS011;1833;42.718;23.270;2023-04-25T01:41:28;34.60;;;31.50;;
3633;SDS011;1833;42.718;23.270;2023-04-25T01:43:56;34.60;;;31.80;;
3633;SDS011;1833;42.718;23.270;2023-04-25T01:46:23;33.73;;;30.63;;
3633;SDS011;1833;42.718;23.270;2023-04-25T01:48:51;34.03;;;31.10;;
3633;SDS011;1833;42.718;23.270;2023-04-25T01:51:18;35.30;;;31.63;;
3633;SDS011;1833;42.718;23.270;2023-04-25T01:53:45;33.67;;;30.77;;
3633;SDS011;1833;42.718;23.270;2023-04-25T01:56:14;33.80;;;31.00;;
3633;SDS011;1833;42.718;23.270;2023-04-25T01:58:41;35.57;;;32.20;;
3633;SDS011;1833;42.718;23.270;2023-04-25T02:01:09;35.70;;;32.50;;
3633;SDS011;1833;42.718;23.270;2023-04-25T02:03:37;35.00;;;32.00;;
3633;SDS011;1833;42.718;23.270;2023-04-25T02:06:04;34.90;;;31.83;;
3633;SDS011;1833;42.718;23.270;2023-04-25T02:08:32;35.30;;;32.20;;
3633;SDS011;1833;42.718;23.270;2023-04-25T02:11:00;35.10;;;32.20;;
3633;SDS011;1833;42.718;23.270;2023-04-25T02:13:29;34.13;;;30.80;;
3633;SDS011;1833;42.718;23.270;2023-04-25T02:15:56;35.07;;;32.07;;
3633;SDS011;1833;42.718;23.270;2023-04-25T02:18:24;34.57;;;31.57;;
3633;SDS011;1833;42.718;23.270;2023-04-25T02:20:52;35.30;;;32.20;;
3633;SDS011;1833;42.718;23.270;2023-04-25T02:23:19;36.20;;;32.90;;
3633;SDS011;1833;42.718;23.270;2023-04-25T02:25:46;34.77;;;31.37;;
3633;SDS011;1833;42.718;23.270;2023-04-25T02:28:14;34.53;;;31.43;;
3633;SDS011;1833;42.718;23.270;2023-04-25T02:30:43;35.73;;;32.27;;
3633;SDS011;1833;42.718;23.270;2023-04-25T02:33:10;35.77;;;32.43;;
3633;SDS011;1833;42.718;23.270;2023-04-25T02:35:37;33.40;;;30.70;;
3633;SDS011;1833;42.718;23.270;2023-04-25T02:38:04;35.37;;;32.37;;
3633;SDS011;1833;42.718;23.270;2023-04-25T02:40:32;34.30;;;31.50;;
3633;SDS011;1833;42.718;23.270;2023-04-25T02:42:59;36.70;;;33.30;;
3633;SDS011;1833;42.718;23.270;2023-04-25T02:45:26;35.90;;;32.87;;
3633;SDS011;1833;42.718;23.270;2023-04-25T02:47:55;37.10;;;33.70;;
3633;SDS011;1833;42.718;23.270;2023-04-25T02:50:22;35.43;;;32.43;;
3633;SDS011;1833;42.718;23.270;2023-04-25T02:52:50;38.03;;;34.33;;
3633;SDS011;1833;42.718;23.270;2023-04-25T02:55:17;35.57;;;32.53;;
3633;SDS011;1833;42.718;23.270;2023-04-25T02:57:44;37.77;;;33.80;;
3633;SDS011;1833;42.718;23.270;2023-04-25T03:00:12;38.43;;;34.93;;
3633;SDS011;1833;42.718;23.270;2023-04-25T03:02:40;37.07;;;33.57;;
3633;SDS011;1833;42.718;23.270;2023-04-25T03:05:08;37.83;;;34.23;;
3633;SDS011;1833;42.718;23.270;2023-04-25T03:07:36;37.50;;;34.20;;
3633;SDS011;1833;42.718;23.270;2023-04-25T03:10:05;37.53;;;34.00;;
3633;SDS011;1833;42.718;23.270;2023-04-25T03:12:32;38.43;;;34.57;;
3633;SDS011;1833;42.718;23.270;2023-04-25T03:14:59;37.20;;;33.87;;
3633;SDS011;1833;42.718;23.270;2023-04-25T03:17:27;35.33;;;32.30;;
3633;SDS011;1833;42.718;23.270;2023-04-25T03:19:54;35.80;;;32.73;;
3633;SDS011;1833;42.718;23.270;2023-04-25T03:22:22;37.90;;;34.20;;
3633;SDS011;1833;42.718;23.270;2023-04-25T03:24:50;40.47;;;36.57;;
3633;SDS011;1833;42.718;23.270;2023-04-25T03:27:17;38.77;;;35.10;;
3633;SDS011;1833;42.718;23.270;2023-04-25T03:29:45;39.90;;;36.00;;
3633;SDS011;1833;42.718;23.270;2023-04-25T03:32:12;37.40;;;34.00;;
3633;SDS011;1833;42.718;23.270;2023-04-25T03:34:39;39.33;;;35.33;;
3633;SDS011;1833;42.718;23.270;2023-04-25T03:37:07;37.73;;;33.80;;
3633;SDS011;1833;42.718;23.270;2023-04-25T03:39:36;43.70;;;36.33;;
3633;SDS011;1833;42.718;23.270;2023-04-25T03:42:04;38.10;;;34.33;;
3633;SDS011;1833;42.718;23.270;2023-04-25T03:44:31;38.10;;;34.27;;
3633;SDS011;1833;42.718;23.270;2023-04-25T03:46:58;41.50;;;37.10;;
3633;SDS011;1833;42.718;23.270;2023-04-25T03:49:25;37.37;;;33.57;;
3633;SDS011;1833;42.718;23.270;2023-04-25T03:51:53;37.77;;;34.33;;
3633;SDS011;1833;42.718;23.270;2023-04-25T03:54:20;37.77;;;34.07;;
3633;SDS011;1833;42.718;23.270;2023-04-25T03:56:48;37.07;;;33.57;;
3633;SDS011;1833;42.718;23.270;2023-04-25T03:59:16;36.50;;;32.80;;
3633;SDS011;1833;42.718;23.270;2023-04-25T04:01:43;38.33;;;34.03;;
3633;SDS011;1833;42.718;23.270;2023-04-25T04:04:10;33.50;;;30.30;;
3633;SDS011;1833;42.718;23.270;2023-04-25T04:06:37;33.07;;;29.83;;
3633;SDS011;1833;42.718;23.270;2023-04-25T04:09:05;34.40;;;31.10;;
3633;SDS011;1833;42.718;23.270;2023-04-25T04:11:35;34.10;;;30.60;;
3633;SDS011;1833;42.718;23.270;2023-04-25T04:14:04;32.67;;;29.57;;
3633;SDS011;1833;42.718;23.270;2023-04-25T04:16:32;30.90;;;28.10;;
3633;SDS011;1833;42.718;23.270;2023-04-25T04:18:59;31.57;;;28.50;;
3633;SDS011;1833;42.718;23.270;2023-04-25T04:21:26;32.40;;;29.33;;
3633;SDS011;1833;42.718;23.270;2023-04-25T04:23:54;31.33;;;28.33;;
3633;SDS011;1833;42.718;23.270;2023-04-25T04:26:22;30.50;;;27.30;;
3633;SDS011;1833;42.718;23.270;2023-04-25T04:28:51;28.67;;;26.13;;
3633;SDS011;1833;42.718;23.270;2023-04-25T04:31:20;30.67;;;27.67;;
3633;SDS011;1833;42.718;23.270;2023-04-25T04:33:47;30.47;;;27.37;;
3633;SDS011;1833;42.718;23.270;2023-04-25T04:36:15;30.00;;;27.13;;
3633;SDS011;1833;42.718;23.270;2023-04-25T04:38:46;30.40;;;27.50;;
3633;SDS011;1833;42.718;23.270;2023-04-25T04:41:14;29.93;;;27.00;;
3633;SDS011;1833;42.718;23.270;2023-04-25T04:43:41;28.53;;;25.77;;
3633;SDS011;1833;42.718;23.270;2023-04-25T04:46:08;29.17;;;26.47;;
3633;SDS011;1833;42.718;23.270;2023-04-25T04:48:39;29.57;;;26.77;;
3633;SDS011;1833;42.718;23.270;2023-04-25T04:51:06;30.33;;;27.10;;
3633;SDS011;1833;42.718;23.270;2023-04-25T04:53:33;28.23;;;25.37;;
3633;SDS011;1833;42.718;23.270;2023-04-25T04:56:01;27.37;;;24.90;;
3633;SDS011;1833;42.718;23.270;2023-04-25T04:58:28;27.07;;;24.37;;
3633;SDS011;1833;42.718;23.270;2023-04-25T05:00:56;24.50;;;22.23;;
3633;SDS011;1833;42.718;23.270;2023-04-25T05:03:23;25.33;;;23.27;;
3633;SDS011;1833;42.718;23.270;2023-04-25T05:05:52;25.70;;;22.97;;
3633;SDS011;1833;42.718;23.270;2023-04-25T05:08:19;29.27;;;23.90;;
3633;SDS011;1833;42.718;23.270;2023-04-25T05:10:46;25.43;;;23.23;;
3633;SDS011;1833;42.718;23.270;2023-04-25T05:13:13;29.40;;;26.77;;
3633;SDS011;1833;42.718;23.270;2023-04-25T05:15:41;30.30;;;27.60;;
3633;SDS011;1833;42.718;23.270;2023-04-25T05:18:08;29.37;;;26.90;;
3633;SDS011;1833;42.718;23.270;2023-04-25T05:20:35;28.43;;;26.03;;
3633;SDS011;1833;42.718;23.270;2023-04-25T05:23:04;31.33;;;27.00;;
3633;SDS011;1833;42.718;23.270;2023-04-25T05:25:32;29.13;;;26.53;;
3633;SDS011;1833;42.718;23.270;2023-04-25T05:27:59;29.37;;;26.40;;
3633;SDS011;1833;42.718;23.270;2023-04-25T05:30:26;29.77;;;26.97;;
3633;SDS011;1833;42.718;23.270;2023-04-25T05:32:53;28.00;;;25.33;;
3633;SDS011;1833;42.718;23.270;2023-04-25T05:35:21;43.27;;;34.67;;
3633;SDS011;1833;42.718;23.270;2023-04-25T05:37:48;30.97;;;27.83;;
3633;SDS011;1833;42.718;23.270;2023-04-25T05:40:17;29.13;;;26.73;;
3633;SDS011;1833;42.718;23.270;2023-04-25T05:42:44;30.37;;;27.47;;
3633;SDS011;1833;42.718;23.270;2023-04-25T05:45:12;29.07;;;26.47;;
3633;SDS011;1833;42.718;23.270;2023-04-25T05:47:39;31.00;;;28.23;;
3633;SDS011;1833;42.718;23.270;2023-04-25T05:50:07;35.43;;;32.13;;
3633;SDS011;1833;42.718;23.270;2023-04-25T05:52:35;27.00;;;24.70;;
3633;SDS011;1833;42.718;23.270;2023-04-25T05:55:02;28.07;;;25.87;;
3633;SDS011;1833;42.718;23.270;2023-04-25T05:57:31;28.20;;;25.60;;
3633;SDS011;1833;42.718;23.270;2023-04-25T05:59:58;28.03;;;25.73;;
3633;SDS011;1833;42.718;23.270;2023-04-25T06:02:25;26.33;;;24.23;;
3633;SDS011;1833;42.718;23.270;2023-04-25T06:04:52;28.57;;;25.47;;
3633;SDS011;1833;42.718;23.270;2023-04-25T06:07:20;31.60;;;25.53;;
3633;SDS011;1833;42.718;23.270;2023-04-25T06:09:47;28.60;;;25.37;;
3633;SDS011;1833;42.718;23.270;2023-04-25T06:12:14;27.63;;;23.63;;
3633;SDS011;1833;42.718;23.270;2023-04-25T06:14:43;29.80;;;23.73;;
3633;SDS011;1833;42.718;23.270;2023-04-25T06:17:10;25.97;;;23.63;;
3633;SDS011;1833;42.718;23.270;2023-04-25T06:19:37;28.20;;;25.20;;
3633;SDS011;1833;42.718;23.270;2023-04-25T06:22:05;30.30;;;27.20;;
3633;SDS011;1833;42.718;23.270;2023-04-25T06:24:32;40.73;;;28.63;;
3633;SDS011;1833;42.718;23.270;2023-04-25T06:26:59;35.00;;;31.00;;
3633;SDS011;1833;42.718;23.270;2023-04-25T06:29:27;34.23;;;28.80;;
3633;SDS011;1833;42.718;23.270;2023-04-25T06:31:56;31.87;;;28.30;;
3633;SDS011;1833;42.718;23.270;2023-04-25T06:34:23;26.47;;;24.10;;
3633;SDS011;1833;42.718;23.270;2023-04-25T06:36:50;52.27;;;39.30;;
3633;SDS011;1833;42.718;23.270;2023-04-25T06:39:18;45.03;;;34.23;;
3633;SDS011;1833;42.718;23.270;2023-04-25T06:41:48;29.43;;;26.83;;
3633;SDS011;1833;42.718;23.270;2023-04-25T06:44:15;29.87;;;27.37;;
3633;SDS011;1833;42.718;23.270;2023-04-25T06:46:42;31.77;;;28.47;;
3633;SDS011;1833;42.718;23.270;2023-04-25T06:49:11;30.73;;;27.50;;
3633;SDS011;1833;42.718;23.270;2023-04-25T06:51:40;30.10;;;27.30;;
3633;SDS011;1833;42.718;23.270;2023-04-25T06:54:07;28.60;;;26.07;;
3633;SDS011;1833;42.718;23.270;2023-04-25T06:56:34;30.47;;;27.77;;
3633;SDS011;1833;42.718;23.270;2023-04-25T06:59:02;28.50;;;25.80;;
3633;SDS011;1833;42.718;23.270;2023-04-25T07:01:29;27.90;;;25.60;;
3633;SDS011;1833;42.718;23.270;2023-04-25T07:03:56;29.53;;;26.80;;
3633;SDS011;1833;42.718;23.270;2023-04-25T07:06:25;31.07;;;27.83;;
3633;SDS011;1833;42.718;23.270;2023-04-25T07:08:53;27.40;;;24.77;;
3633;SDS011;1833;42.718;23.270;2023-04-25T07:11:20;28.20;;;25.60;;
3633;SDS011;1833;42.718;23.270;2023-04-25T07:13:48;33.60;;;29.83;;
3633;SDS011;1833;42.718;23.270;2023-04-25T07:16:15;31.03;;;28.00;;
3633;SDS011;1833;42.718;23.270;2023-04-25T07:18:43;29.53;;;26.03;;
3633;SDS011;1833;42.718;23.270;2023-04-25T07:21:10;28.37;;;25.77;;
3633;SDS011;1833;42.718;23.270;2023-04-25T07:23:39;26.57;;;24.07;;
3633;SDS011;1833;42.718;23.270;2023-04-25T07:26:06;28.80;;;26.00;;
3633;SDS011;1833;42.718;23.270;2023-04-25T07:28:34;27.73;;;25.00;;
3633;SDS011;1833;42.718;23.270;2023-04-25T07:31:01;27.83;;;25.30;;
3633;SDS011;1833;42.718;23.270;2023-04-25T07:33:28;30.37;;;27.33;;
3633;SDS011;1833;42.718;23.270;2023-04-25T07:35:56;28.90;;;25.90;;
3633;SDS011;1833;42.718;23.270;2023-04-25T07:38:23;28.87;;;26.23;;
3633;SDS011;1833;42.718;23.270;2023-04-25T07:40:52;27.47;;;25.10;;
3633;SDS011;1833;42.718;23.270;2023-04-25T07:43:19;28.23;;;25.80;;
3633;SDS011;1833;42.718;23.270;2023-04-25T07:45:47;29.60;;;26.73;;
3633;SDS011;1833;42.718;23.270;2023-04-25T07:48:16;28.20;;;25.30;;
3633;SDS011;1833;42.718;23.270;2023-04-25T07:50:44;28.93;;;25.23;;
3633;SDS011;1833;42.718;23.270;2023-04-25T07:53:11;29.53;;;26.50;;
3633;SDS011;1833;42.718;23.270;2023-04-25T07:55:38;41.37;;;26.33;;
3633;SDS011;1833;42.718;23.270;2023-04-25T07:58:07;31.00;;;25.63;;
3633;SDS011;1833;42.718;23.270;2023-04-25T08:00:34;29.80;;;27.00;;
3633;SDS011;1833;42.718;23.270;2023-04-25T08:03:02;29.40;;;26.60;;
3633;SDS011;1833;42.718;23.270;2023-04-25T08:05:29;30.83;;;28.13;;
3633;SDS011;1833;42.718;23.270;2023-04-25T08:07:56;33.63;;;28.47;;
3633;SDS011;1833;42.718;23.270;2023-04-25T08:10:24;30.87;;;27.70;;
3633;SDS011;1833;42.718;23.270;2023-04-25T08:12:51;29.73;;;26.93;;
3633;SDS011;1833;42.718;23.270;2023-04-25T08:15:20;30.13;;;27.00;;
3633;SDS011;1833;42.718;23.270;2023-04-25T08:17:47;31.63;;;28.60;;
3633;SDS011;1833;42.718;23.270;2023-04-25T08:20:14;30.90;;;27.90;;
3633;SDS011;1833;42.718;23.270;2023-04-25T08:22:42;35.23;;;31.80;;
3633;SDS011;1833;42.718;23.270;2023-04-25T08:25:09;41.07;;;36.97;;
3633;SDS011;1833;42.718;23.270;2023-04-25T08:27:36;42.77;;;38.03;;
3633;SDS011;1833;42.718;23.270;2023-04-25T08:30:04;51.57;;;43.27;;
3633;SDS011;1833;42.718;23.270;2023-04-25T08:32:34;54.13;;;48.33;;
3633;SDS011;1833;42.718;23.270;2023-04-25T08:35:03;58.13;;;52.13;;
3633;SDS011;1833;42.718;23.270;2023-04-25T08:37:30;47.93;;;43.13;;
3633;SDS011;1833;42.718;23.270;2023-04-25T08:39:57;45.70;;;41.13;;
3633;SDS011;1833;42.718;23.270;2023-04-25T08:42:25;44.70;;;40.40;;
3633;SDS011;1833;42.718;23.270;2023-04-25T08:44:54;43.77;;;39.67;;
3633;SDS011;1833;42.718;23.270;2023-04-25T08:47:21;42.80;;;39.07;;
3633;SDS011;1833;42.718;23.270;2023-04-25T08:49:50;45.40;;;41.20;;
3633;SDS011;1833;42.718;23.270;2023-04-25T08:52:21;43.23;;;39.13;;
3633;SDS011;1833;42.718;23.270;2023-04-25T08:54:49;51.20;;;46.20;;
3633;SDS011;1833;42.718;23.270;2023-04-25T08:57:16;48.73;;;43.53;;
3633;SDS011;1833;42.718;23.270;2023-04-25T08:59:44;50.70;;;42.73;;
3633;SDS011;1833;42.718;23.270;2023-04-25T09:02:12;44.50;;;39.80;;
3633;SDS011;1833;42.718;23.270;2023-04-25T09:04:42;41.03;;;37.23;;
3633;SDS011;1833;42.718;23.270;2023-04-25T09:07:14;40.37;;;36.47;;
3633;SDS011;1833;42.718;23.270;2023-04-25T09:09:43;38.93;;;35.43;;
3633;SDS011;1833;42.718;23.270;2023-04-25T09:12:10;36.97;;;33.37;;
3633;SDS011;1833;42.718;23.270;2023-04-25T09:14:38;38.57;;;34.67;;
3633;SDS011;1833;42.718;23.270;2023-04-25T09:17:07;35.43;;;31.83;;
3633;SDS011;1833;42.718;23.270;2023-04-25T09:19:35;34.97;;;30.60;;
3633;SDS011;1833;42.718;23.270;2023-04-25T09:22:04;35.97;;;30.33;;
3633;SDS011;1833;42.718;23.270;2023-04-25T09:24:37;43.87;;;29.43;;
3633;SDS011;1833;42.718;23.270;2023-04-25T09:27:05;30.33;;;27.30;;
3633;SDS011;1833;42.718;23.270;2023-04-25T09:29:32;30.43;;;27.63;;
3633;SDS011;1833;42.718;23.270;2023-04-25T09:32:14;33.67;;;30.17;;
3633;SDS011;1833;42.718;23.270;2023-04-25T09:34:41;37.63;;;32.60;;
3633;SDS011;1833;42.718;23.270;2023-04-25T09:37:09;31.50;;;28.20;;
3633;SDS011;1833;42.718;23.270;2023-04-25T09:39:38;31.77;;;28.20;;
3633;SDS011;1833;42.718;23.270;2023-04-25T09:42:05;30.37;;;27.37;;
3633;SDS011;1833;42.718;23.270;2023-04-25T09:44:33;28.23;;;25.73;;
3633;SDS011;1833;42.718;23.270;2023-04-25T09:47:00;29.87;;;26.90;;
3633;SDS011;1833;42.718;23.270;2023-04-25T09:49:28;34.10;;;28.67;;
3633;SDS011;1833;42.718;23.270;2023-04-25T09:51:55;29.50;;;26.60;;
3633;SDS011;1833;42.718;23.270;2023-04-25T09:54:23;27.33;;;24.93;;
3633;SDS011;1833;42.718;23.270;2023-04-25T09:56:52;31.23;;;26.60;;
3633;SDS011;1833;42.718;23.270;2023-04-25T09:59:20;29.07;;;26.47;;
3633;SDS011;1833;42.718;23.270;2023-04-25T10:01:48;28.17;;;25.67;;
3633;SDS011;1833;42.718;23.270;2023-04-25T10:04:18;27.03;;;24.70;;
3633;SDS011;1833;42.718;23.270;2023-04-25T10:06:47;26.87;;;24.33;;
3633;SDS011;1833;42.718;23.270;2023-04-25T10:09:15;27.80;;;25.40;;
3633;SDS011;1833;42.718;23.270;2023-04-25T10:11:43;26.23;;;24.13;;
3633;SDS011;1833;42.718;23.270;2023-04-25T10:14:13;26.63;;;24.43;;
3633;SDS011;1833;42.718;23.270;2023-04-25T10:16:41;26.67;;;24.40;;
3633;SDS011;1833;42.718;23.270;2023-04-25T10:19:09;25.60;;;23.50;;
3633;SDS011;1833;42.718;23.270;2023-04-25T10:21:36;25.97;;;23.67;;
3633;SDS011;1833;42.718;23.270;2023-04-25T10:24:07;26.20;;;24.00;;
3633;SDS011;1833;42.718;23.270;2023-04-25T10:26:35;26.60;;;24.40;;
3633;SDS011;1833;42.718;23.270;2023-04-25T10:29:03;26.87;;;24.53;;
3633;SDS011;1833;42.718;23.270;2023-04-25T10:31:37;26.10;;;24.00;;
3633;SDS011;1833;42.718;23.270;2023-04-25T10:34:11;25.80;;;23.67;;
3633;SDS011;1833;42.718;23.270;2023-04-25T10:36:38;26.63;;;24.03;;
3633;SDS011;1833;42.718;23.270;2023-04-25T10:39:06;25.33;;;23.23;;
3633;SDS011;1833;42.718;23.270;2023-04-25T10:41:45;24.50;;;22.47;;
3633;SDS011;1833;42.718;23.270;2023-04-25T10:44:14;24.60;;;22.27;;
3633;SDS011;1833;42.718;23.270;2023-04-25T10:46:42;23.70;;;21.90;;
3633;SDS011;1833;42.718;23.270;2023-04-25T10:49:11;23.63;;;21.73;;
3633;SDS011;1833;42.718;23.270;2023-04-25T10:54:39;25.63;;;23.53;;
3633;SDS011;1833;42.718;23.270;2023-04-25T10:57:07;26.67;;;23.90;;
3633;SDS011;1833;42.718;23.270;2023-04-25T10:59:34;25.27;;;23.17;;
3633;SDS011;1833;42.718;23.270;2023-04-25T11:02:09;25.70;;;23.40;;
3633;SDS011;1833;42.718;23.270;2023-04-25T11:04:38;26.30;;;24.10;;
3633;SDS011;1833;42.718;23.270;2023-04-25T11:07:09;26.50;;;24.17;;
3633;SDS011;1833;42.718;23.270;2023-04-25T11:09:38;26.90;;;24.70;;
3633;SDS011;1833;42.718;23.270;2023-04-25T11:12:07;26.13;;;23.93;;
3633;SDS011;1833;42.718;23.270;2023-04-25T11:14:36;28.03;;;25.63;;
3633;SDS011;1833;42.718;23.270;2023-04-25T11:17:05;27.10;;;24.80;;
3633;SDS011;1833;42.718;23.270;2023-04-25T11:19:32;27.20;;;24.47;;
3633;SDS011;1833;42.718;23.270;2023-04-25T11:22:00;27.20;;;24.47;;
3633;SDS011;1833;42.718;23.270;2023-04-25T11:24:28;26.33;;;24.07;;
3633;SDS011;1833;42.718;23.270;2023-04-25T11:26:56;26.80;;;24.60;;
3633;SDS011;1833;42.718;23.270;2023-04-25T11:29:23;25.90;;;23.60;;
3633;SDS011;1833;42.718;23.270;2023-04-25T11:31:51;26.47;;;24.07;;
3633;SDS011;1833;42.718;23.270;2023-04-25T11:34:19;25.90;;;23.80;;
3633;SDS011;1833;42.718;23.270;2023-04-25T11:36:47;27.13;;;24.83;;
3633;SDS011;1833;42.718;23.270;2023-04-25T11:39:14;27.10;;;24.90;;
3633;SDS011;1833;42.718;23.270;2023-04-25T11:41:41;24.97;;;22.77;;
3633;SDS011;1833;42.718;23.270;2023-04-25T11:44:09;25.17;;;23.07;;
3633;SDS011;1833;42.718;23.270;2023-04-25T11:46:36;24.93;;;22.93;;
3633;SDS011;1833;42.718;23.270;2023-04-25T11:49:04;24.93;;;22.83;;
3633;SDS011;1833;42.718;23.270;2023-04-25T11:51:38;25.87;;;23.77;;
3633;SDS011;1833;42.718;23.270;2023-04-25T11:54:06;25.40;;;23.20;;
3633;SDS011;1833;42.718;23.270;2023-04-25T11:56:33;23.80;;;21.90;;
3633;SDS011;1833;42.718;23.270;2023-04-25T11:59:01;25.70;;;23.40;;
3633;SDS011;1833;42.718;23.270;2023-04-25T12:01:29;25.40;;;23.10;;
3633;SDS011;1833;42.718;23.270;2023-04-25T12:03:57;25.40;;;23.30;;
3633;SDS011;1833;42.718;23.270;2023-04-25T12:06:27;26.37;;;24.07;;
3633;SDS011;1833;42.718;23.270;2023-04-25T12:09:03;24.60;;;22.50;;
3633;SDS011;1833;42.718;23.270;2023-04-25T12:11:30;25.30;;;23.10;;
3633;SDS011;1833;42.718;23.270;2023-04-25T12:14:01;25.00;;;22.90;;
3633;SDS011;1833;42.718;23.270;2023-04-25T12:16:30;25.23;;;23.03;;
3633;SDS011;1833;42.718;23.270;2023-04-25T12:18:57;25.13;;;23.03;;
3633;SDS011;1833;42.718;23.270;2023-04-25T12:21:27;27.17;;;24.97;;
3633;SDS011;1833;42.718;23.270;2023-04-25T12:23:55;30.47;;;27.73;;
3633;SDS011;1833;42.718;23.270;2023-04-25T12:26:24;44.97;;;40.23;;
3633;SDS011;1833;42.718;23.270;2023-04-25T12:28:52;48.60;;;44.30;;
3633;SDS011;1833;42.718;23.270;2023-04-25T12:31:19;49.07;;;44.87;;
3633;SDS011;1833;42.718;23.270;2023-04-25T12:33:47;51.20;;;46.50;;
3633;SDS011;1833;42.718;23.270;2023-04-25T12:36:14;49.57;;;45.57;;
3633;SDS011;1833;42.718;23.270;2023-04-25T12:38:42;50.67;;;46.67;;
3633;SDS011;1833;42.718;23.270;2023-04-25T12:41:09;45.37;;;41.67;;
3633;SDS011;1833;42.718;23.270;2023-04-25T12:43:38;44.97;;;41.27;;
3633;SDS011;1833;42.718;23.270;2023-04-25T12:46:05;45.63;;;41.90;;
3633;SDS011;1833;42.718;23.270;2023-04-25T12:48:33;45.13;;;41.63;;
3633;SDS011;1833;42.718;23.270;2023-04-25T12:51:00;44.53;;;40.83;;
3633;SDS011;1833;42.718;23.270;2023-04-25T12:53:27;41.43;;;37.70;;
3633;SDS011;1833;42.718;23.270;2023-04-25T12:55:55;38.83;;;35.73;;
3633;SDS011;1833;42.718;23.270;2023-04-25T12:58:23;35.90;;;33.00;;
3633;SDS011;1833;42.718;23.270;2023-04-25T13:00:52;35.80;;;32.80;;
3633;SDS011;1833;42.718;23.270;2023-04-25T13:03:19;35.87;;;32.97;;
3633;SDS011;1833;42.718;23.270;2023-04-25T13:05:47;35.83;;;32.93;;
3633;SDS011;1833;42.718;23.270;2023-04-25T13:08:15;32.53;;;29.93;;
3633;SDS011;1833;42.718;23.270;2023-04-25T13:10:42;31.80;;;28.80;;
3633;SDS011;1833;42.718;23.270;2023-04-25T13:13:09;30.67;;;27.93;;
3633;SDS011;1833;42.718;23.270;2023-04-25T13:15:37;29.87;;;27.33;;
3633;SDS011;1833;42.718;23.270;2023-04-25T13:18:05;30.03;;;27.63;;
3633;SDS011;1833;42.718;23.270;2023-04-25T13:20:33;30.17;;;27.70;;
3633;SDS011;1833;42.718;23.270;2023-04-25T13:23:00;27.20;;;25.10;;
3633;SDS011;1833;42.718;23.270;2023-04-25T13:25:28;27.63;;;25.53;;
3633;SDS011;1833;42.718;23.270;2023-04-25T13:27:55;27.80;;;25.60;;
3633;SDS011;1833;42.718;23.270;2023-04-25T13:30:22;29.03;;;26.83;;
3633;SDS011;1833;42.718;23.270;2023-04-25T13:32:49;35.27;;;32.37;;
3633;SDS011;1833;42.718;23.270;2023-04-25T13:35:19;35.97;;;32.73;;
3633;SDS011;1833;42.718;23.270;2023-04-25T13:37:46;39.50;;;35.60;;
3633;SDS011;1833;42.718;23.270;2023-04-25T13:40:13;41.67;;;38.00;;
3633;SDS011;1833;42.718;23.270;2023-04-25T13:42:41;41.50;;;37.87;;
3633;SDS011;1833;42.718;23.270;2023-04-25T13:45:10;40.90;;;37.80;;
3633;SDS011;1833;42.718;23.270;2023-04-25T13:47:37;39.03;;;36.07;;
3633;SDS011;1833;42.718;23.270;2023-04-25T13:50:05;38.67;;;35.30;;
3633;SDS011;1833;42.718;23.270;2023-04-25T13:52:34;37.90;;;35.10;;
3633;SDS011;1833;42.718;23.270;2023-04-25T13:55:02;36.27;;;33.57;;
3633;SDS011;1833;42.718;23.270;2023-04-25T13:57:31;34.07;;;31.40;;
3633;SDS011;1833;42.718;23.270;2023-04-25T13:59:59;34.40;;;31.60;;
3633;SDS011;1833;42.718;23.270;2023-04-25T14:02:31;38.23;;;35.23;;
3633;SDS011;1833;42.718;23.270;2023-04-25T14:04:58;39.27;;;36.17;;
3633;SDS011;1833;42.718;23.270;2023-04-25T14:07:25;40.37;;;37.10;;
3633;SDS011;1833;42.718;23.270;2023-04-25T14:09:54;40.93;;;37.63;;
3633;SDS011;1833;42.718;23.270;2023-04-25T14:12:22;38.73;;;35.63;;
3633;SDS011;1833;42.718;23.270;2023-04-25T14:14:49;40.17;;;36.80;;
3633;SDS011;1833;42.718;23.270;2023-04-25T14:17:17;37.03;;;34.03;;
3633;SDS011;1833;42.718;23.270;2023-04-25T14:19:45;37.17;;;33.57;;
3633;SDS011;1833;42.718;23.270;2023-04-25T14:22:13;32.47;;;29.80;;
3633;SDS011;1833;42.718;23.270;2023-04-25T14:24:41;31.00;;;28.60;;
3633;SDS011;1833;42.718;23.270;2023-04-25T14:27:10;31.77;;;29.13;;
3633;SDS011;1833;42.718;23.270;2023-04-25T14:29:37;31.37;;;28.67;;
3633;SDS011;1833;42.718;23.270;2023-04-25T14:32:05;31.27;;;28.90;;
3633;SDS011;1833;42.718;23.270;2023-04-25T14:34:32;31.63;;;28.97;;
3633;SDS011;1833;42.718;23.270;2023-04-25T14:36:59;31.50;;;28.67;;
3633;SDS011;1833;42.718;23.270;2023-04-25T14:39:27;28.20;;;26.10;;